Lochloosa, Florida
Current Conditions -  °F | °C
As of 3:53 AM on Sunday 23 Nov 2014 (Local Time) from KGNV Reporting Station
Light Rain Light Rain  
Wind Chill: 19°   Ceiling: 1500
Heat Index: 19°   Visibility: 4mi
Dew Point: 19°   Wind: 6mph
Humidity: 100%   Direction: 130°SE
Pressure: 30.02"   Gusts: NA
Location:  29.51°N, 82.1°W
Report Text: KGNV 230853Z AUTO 13005KT 4SM -RA BR SCT005 BKN015 OVC024 19/19 A3002 RMK AO2 SLP163 P0010 60014 T01890189 56014
Loading
Personal Weather Stations






























Interactive Weather Map New forecast layout! Learn more

10-Day Weather Forecast

Advertisements
Track Severe Weather on mobile